Accueil
METAR-TAF:

METAR-TAF

Aéroports :

Aéroport international Roman-Tmetuchl

Koror, Babeldaob, Palaos

latitude: 07-22N, longitude: 134-32E, altitude: 54 m

Observation

Le bulletin a été fait il y a 46 minutes, à 03:50 UTC
Vent 7 kt de nord avec des rafales jusqu'à 13 kt
Température 29°C
Humidité 70%
Pression 1010 hPa
Visibilité: 24.1 km
Nuages épars à une hauteur de 1600 ft, Cumulus congestus.
Nuages fragmentés à une hauteur de 12000 ft
Nuages fragmentés à une hauteur de 30000 ft

METAR: PTRO 230350Z 01007G13KT 15SM SCT016TCU BKN120 BKN300 29/23 A2982 RMK TCU ALQDS

Heure: 13:36 (04:36 UTC)

Prévision

Le bulletin a été fait il y a 4 heures et 57 minutes, à 23:39 UTC
Prévision valable du 23 à 00 UTC au 23 à 24 UTC
Vent 11 kt de nord avec des rafales jusqu'à 20 kt
Visibilité: 10 km
Nuages épars à une hauteur de 1600 ft
Nuages épars à une hauteur de 4000 ft
averses à proximité

TAF: PTRO 222339Z 2300/2324 36011G20KT P6SM VCSH SCT016 SCT040

Observations et prévisions météorologiques de plus de 4000 aéroports (messages METAR et TAF).

Les stations disponibles sont représentées par des disques jaunes et rouges sur la carte.

Passer la souris dessus pour voir le nom de la station.

Cliquer dessus pour voir les observations et prévisions météorologiques.

Pour changer de carte: cliquez sur les boutons verts avec une croix noire pour zoomer, sur le bouton vert avec un tiret pour effectuer un zoom arrière, ou sur les flèches vertes pour les cartes adjacentes.


METAR-TAF: